Aviation Digital Data Service (ADDS)

Output produced by TAFs form (0758 UTC 19 December 2014)
found at http://aviationweather.gov/adds/tafs/
 
KEGE 190723Z 1907/2006 14003KT P6SM VCFG BKN015 OVC060 
     FM191300 00000KT P6SM VCFG FEW005 SCT070 
     FM191700 25003KT P6SM FEW070 SCT250 
     FM200000 13003KT P6SM OVC080 AMD LTD TO CLD VIS AND WIND TIL 191400